Time;durP1;ratioP1;P1;durP2;ratioP2;P2;SDS_P1;SDS_P2;PMS_P1;PMS_P2;Temp;Humidity;BMP_temperature;BMP_pressure;BME280_temperature;BME280_humidity;BME280_pressure;Samples;Min_cycle;Max_cycle;Signal;HPM_P1;HPM_P2
2021/07/24 00:01:03;;;;;;;12.03;7.70;;;;;;;16.86;66.38;97404.50;126926;1092;62570;-64
2021/07/24 00:03:30;;;;;;;11.67;8.37;;;;;;;16.88;66.34;97410.41;126912;1092;62578;-65
2021/07/24 00:05:57;;;;;;;13.80;8.13;;;;;;;16.90;66.41;97396.72;126965;1092;62616;-65
2021/07/24 00:08:25;;;;;;;9.60;6.90;;;;;;;16.93;66.46;97400.56;126852;1092;62606;-64
2021/07/24 00:10:52;;;;;;;10.75;7.20;;;;;;;16.93;66.33;97398.53;126918;1092;62726;-64
2021/07/24 00:13:19;;;;;;;9.27;6.67;;;;;;;16.90;66.36;97402.30;126886;1092;63092;-64
2021/07/24 00:15:46;;;;;;;10.67;7.17;;;;;;;16.89;66.52;97400.77;126932;1092;62601;-64
2021/07/24 00:18:13;;;;;;;11.70;6.77;;;;;;;16.86;66.71;97401.71;126924;1092;62623;-64
2021/07/24 00:20:40;;;;;;;10.33;6.83;;;;;;;16.82;66.76;97401.91;126843;1092;62630;-64
2021/07/24 00:23:08;;;;;;;10.93;7.60;;;;;;;16.80;66.80;97400.86;126923;1092;62633;-63
2021/07/24 00:25:35;;;;;;;9.57;7.00;;;;;;;16.74;66.93;97405.59;126898;1092;62626;-63
2021/07/24 00:28:21;;;;;;;9.83;7.13;;;;;;;16.69;67.00;97404.22;126920;1092;62651;-64
2021/07/24 00:30:48;;;;;;;9.60;6.40;;;;;;;16.68;67.05;97413.09;126900;1092;62590;-64
2021/07/24 00:33:15;;;;;;;9.73;7.20;;;;;;;16.63;66.79;97412.48;126892;1092;62763;-65
2021/07/24 00:35:43;;;;;;;10.03;6.60;;;;;;;16.57;67.17;97411.63;126899;1092;62626;-64
2021/07/24 00:38:10;;;;;;;9.40;7.30;;;;;;;16.53;67.28;97407.48;126894;1092;62606;-64
2021/07/24 00:40:40;;;;;;;12.83;7.50;;;;;;;16.50;67.28;97405.63;126932;1092;62594;-64
2021/07/24 00:43:08;;;;;;;12.90;6.80;;;;;;;16.44;67.49;97411.13;126914;1092;62674;-64
2021/07/24 00:45:47;;;;;;;11.20;7.30;;;;;;;16.40;67.87;97404.95;126841;1092;62739;-64
2021/07/24 00:48:19;;;;;;;10.23;7.40;;;;;;;16.38;67.53;97407.47;126921;1092;62926;-64
2021/07/24 00:50:57;;;;;;;14.63;7.40;;;;;;;16.36;67.72;97409.97;127030;1092;63130;-64
2021/07/24 00:53:34;;;;;;;10.93;6.73;;;;;;;16.35;67.64;97402.84;126901;1092;62684;-64
2021/07/24 00:56:03;;;;;;;10.20;7.10;;;;;;;16.36;68.00;97409.97;126876;1092;62585;-64
2021/07/24 00:58:37;;;;;;;11.20;7.10;;;;;;;16.32;67.71;97409.36;126920;1092;62576;-64
2021/07/24 01:01:05;;;;;;;10.30;7.07;;;;;;;16.31;67.98;97399.44;126927;1092;62667;-64
2021/07/24 01:03:32;;;;;;;10.87;6.83;;;;;;;16.30;68.16;97404.26;126957;1092;62615;-63
2021/07/24 01:05:59;;;;;;;11.13;7.53;;;;;;;16.28;68.30;97411.58;126956;1092;62625;-65
2021/07/24 01:08:26;;;;;;;10.10;7.50;;;;;;;16.27;68.21;97412.83;126962;1092;62562;-65
2021/07/24 01:10:54;;;;;;;10.50;7.20;;;;;;;16.25;68.14;97398.58;126899;1092;62597;-65
2021/07/24 01:13:21;;;;;;;9.77;7.13;;;;;;;16.26;67.64;97400.12;126854;1092;62653;-65
2021/07/24 01:15:52;;;;;;;10.03;7.27;;;;;;;16.26;67.75;97402.91;126884;1092;62623;-65
2021/07/24 01:18:19;;;;;;;10.83;6.27;;;;;;;16.24;67.69;97405.41;126879;1092;62587;-65
2021/07/24 01:20:46;;;;;;;11.50;6.67;;;;;;;16.16;67.48;97404.26;126853;1092;62610;-65
2021/07/24 01:23:14;;;;;;;9.50;6.87;;;;;;;16.09;67.39;97402.58;126868;1092;62687;-65
2021/07/24 01:25:52;;;;;;;12.27;7.07;;;;;;;16.06;67.43;97408.36;126949;1092;62640;-64
2021/07/24 01:28:33;;;;;;;11.90;7.33;;;;;;;15.99;66.95;97407.48;126876;1092;62634;-65
2021/07/24 01:31:19;;;;;;;11.20;6.73;;;;;;;15.96;67.22;97410.44;126895;1092;62611;-64
2021/07/24 01:33:46;;;;;;;10.20;6.90;;;;;;;15.92;67.22;97404.27;126879;1092;62617;-65
2021/07/24 01:36:13;;;;;;;9.90;6.60;;;;;;;15.90;67.38;97407.54;126846;1092;63024;-65
2021/07/24 01:38:40;;;;;;;10.17;6.67;;;;;;;15.87;67.31;97399.35;126877;1092;62680;-65
2021/07/24 01:41:08;;;;;;;8.73;6.80;;;;;;;15.85;67.57;97393.48;126979;1092;62586;-64
2021/07/24 01:43:36;;;;;;;9.63;6.80;;;;;;;15.84;67.61;97398.28;126972;1092;62626;-65
2021/07/24 01:46:04;;;;;;;11.27;7.13;;;;;;;15.83;67.51;97396.75;126914;1092;62621;-65
2021/07/24 01:48:35;;;;;;;10.30;6.60;;;;;;;15.83;67.71;97396.75;126920;1092;62696;-65
2021/07/24 01:53:52;;;;;;;9.53;6.97;;;;;;;15.82;67.80;97388.84;127033;1092;62623;-64
2021/07/24 01:56:20;;;;;;;10.20;6.67;;;;;;;15.81;67.88;97387.31;127018;1092;62600;-65
2021/07/24 01:58:47;;;;;;;9.00;6.53;;;;;;;15.78;67.70;97389.00;126994;1092;62616;-65
2021/07/24 02:01:14;;;;;;;9.97;7.10;;;;;;;15.77;68.15;97389.48;126884;1092;62727;-64
2021/07/24 02:03:43;;;;;;;11.10;7.07;;;;;;;15.73;68.41;97386.88;126867;1092;62689;-65
2021/07/24 02:06:11;;;;;;;13.60;7.27;;;;;;;15.73;68.03;97386.88;126962;1092;62577;-72
2021/07/24 02:08:41;;;;;;;10.17;6.90;;;;;;;15.74;68.26;97384.86;127034;1092;62578;-64
2021/07/24 02:11:08;;;;;;;9.83;6.73;;;;;;;15.73;68.19;97381.30;126946;1092;62587;-64
2021/07/24 02:13:35;;;;;;;11.37;6.87;;;;;;;15.71;68.39;97383.80;126893;1092;62602;-65
2021/07/24 02:16:04;;;;;;;11.90;6.70;;;;;;;15.67;67.96;97388.80;126948;1092;62608;-66
2021/07/24 02:18:31;;;;;;;11.07;6.97;;;;;;;15.62;67.98;97386.66;126989;1092;62636;-65
2021/07/24 02:20:58;;;;;;;10.47;6.40;;;;;;;15.58;68.04;97388.81;126937;1092;63060;-66
2021/07/24 02:23:25;;;;;;;11.30;6.70;;;;;;;15.52;68.09;97388.70;126888;1092;62621;-66
2021/07/24 02:25:52;;;;;;;10.50;6.83;;;;;;;15.49;68.19;97386.09;126889;1092;62616;-64
2021/07/24 02:28:19;;;;;;;13.03;6.83;;;;;;;15.41;68.43;97380.84;126887;1092;62665;-65
2021/07/24 02:30:46;;;;;;;8.95;6.90;;;;;;;15.34;68.30;97389.58;126901;1092;62622;-64
2021/07/24 02:33:13;;;;;;;12.50;7.10;;;;;;;15.30;68.39;97385.42;126902;1092;62664;-66
2021/07/24 02:35:41;;;;;;;8.87;6.40;;;;;;;15.27;68.25;97384.35;126908;1092;62577;-65
2021/07/24 02:38:08;;;;;;;10.60;6.57;;;;;;;15.25;68.25;97392.39;126899;1092;62789;-65
2021/07/24 02:40:36;;;;;;;9.27;6.40;;;;;;;15.22;68.63;97382.19;127001;1090;62585;-65
2021/07/24 02:43:03;;;;;;;10.77;7.27;;;;;;;15.21;68.45;97396.61;126952;1092;62622;-65
2021/07/24 02:45:30;;;;;;;10.27;7.10;;;;;;;15.19;68.70;97388.72;126911;1092;62633;-65
2021/07/24 02:47:57;;;;;;;11.93;7.07;;;;;;;15.20;68.47;97390.26;126884;1092;62639;-64
2021/07/24 02:50:24;;;;;;;11.07;6.70;;;;;;;15.22;68.48;97390.55;126888;1092;62740;-64
2021/07/24 02:52:51;;;;;;;9.73;6.50;;;;;;;15.24;68.81;97393.64;126890;1092;62627;-64
2021/07/24 02:55:18;;;;;;;10.30;6.73;;;;;;;15.25;68.83;97386.81;126903;1092;62615;-64
2021/07/24 02:57:45;;;;;;;9.83;7.27;;;;;;;15.25;68.58;97391.63;126875;1092;62655;-64
2021/07/24 03:00:13;;;;;;;15.23;7.20;;;;;;;15.25;68.80;97389.61;126951;1092;62667;-64
2021/07/24 03:02:40;;;;;;;9.63;6.70;;;;;;;15.23;68.68;97394.89;126900;1092;62737;-63
2021/07/24 03:05:08;;;;;;;11.03;7.53;;;;;;;15.25;68.74;97392.39;126851;1092;62738;-64
2021/07/24 03:07:35;;;;;;;10.27;6.93;;;;;;;15.25;68.66;97386.05;126917;1092;62616;-64
2021/07/24 03:10:02;;;;;;;8.33;6.33;;;;;;;15.29;68.92;97393.02;126896;1092;62620;-64
2021/07/24 03:12:48;;;;;;;10.55;7.35;;;;;;;15.35;68.73;97391.11;126892;1092;62636;-64
2021/07/24 03:15:15;;;;;;;12.07;6.97;;;;;;;15.53;68.99;97389.47;126894;1092;62888;-64
2021/07/24 03:17:42;;;;;;;11.23;6.53;;;;;;;15.71;68.77;97389.38;126935;1092;62716;-64
2021/07/24 03:20:10;;;;;;;8.57;6.13;;;;;;;15.90;68.10;97385.20;126858;1092;63089;-64
2021/07/24 03:22:38;;;;;;;10.87;6.93;;;;;;;16.10;67.91;97392.19;127011;1092;62569;-64
2021/07/24 03:25:05;;;;;;;12.20;6.83;;;;;;;16.29;67.53;97393.56;126886;1092;62619;-64
2021/07/24 03:27:33;;;;;;;9.87;7.30;;;;;;;16.62;66.93;97385.02;126902;1092;62622;-64
2021/07/24 03:30:01;;;;;;;10.87;6.77;;;;;;;16.89;66.19;97392.38;126889;1092;62764;-64
2021/07/24 03:32:28;;;;;;;8.93;6.73;;;;;;;17.21;65.71;97388.54;126921;1092;62620;-64
2021/07/24 03:34:55;;;;;;;14.40;7.27;;;;;;;17.43;64.92;97384.55;126904;1092;62642;-63
2021/07/24 03:37:23;;;;;;;9.47;6.07;;;;;;;17.49;64.27;97390.98;126909;1092;62591;-65
2021/07/24 03:39:50;;;;;;;8.90;6.13;;;;;;;17.63;63.79;97395.77;126862;1092;62716;-64
2021/07/24 03:42:17;;;;;;;13.20;6.43;;;;;;;17.80;63.38;97396.78;126911;1090;62732;-64
2021/07/24 03:44:44;;;;;;;10.60;6.20;;;;;;;17.88;62.66;97394.33;126881;1092;62649;-64
2021/07/24 03:47:11;;;;;;;10.13;5.90;;;;;;;17.97;62.20;97394.20;126888;1092;62694;-64
2021/07/24 03:49:38;;;;;;;9.40;5.90;;;;;;;18.17;61.93;97399.01;126902;1092;62609;-68
2021/07/24 03:52:06;;;;;;;9.13;5.90;;;;;;;18.30;61.37;97396.59;126884;1092;62706;-64
2021/07/24 03:54:33;;;;;;;9.37;6.30;;;;;;;18.56;60.68;97395.84;126870;1092;62703;-64
2021/07/24 03:57:00;;;;;;;10.20;6.00;;;;;;;18.75;60.32;97401.91;126897;1092;62674;-64
2021/07/24 03:59:27;;;;;;;8.50;5.73;;;;;;;18.85;60.23;97412.48;126976;1092;62618;-66
2021/07/24 04:01:56;;;;;;;10.93;6.50;;;;;;;18.96;60.20;97395.72;126882;1092;62622;-65
2021/07/24 04:04:24;;;;;;;8.55;6.03;;;;;;;19.24;59.58;97409.22;126998;1092;62617;-65
2021/07/24 04:06:54;;;;;;;9.80;5.90;;;;;;;19.48;59.33;97409.63;126931;1092;62630;-63
2021/07/24 04:09:21;;;;;;;9.83;5.87;;;;;;;19.85;58.46;97408.84;126868;1092;62629;-63
2021/07/24 04:11:48;;;;;;;10.27;6.03;;;;;;;20.47;56.89;97407.06;126868;1092;62605;-63
2021/07/24 04:14:15;;;;;;;9.37;6.33;;;;;;;21.17;55.07;97408.91;126900;1092;62911;-63
2021/07/24 04:16:42;;;;;;;14.87;6.00;;;;;;;21.69;53.91;97408.34;126961;1090;62712;-64
2021/07/24 04:19:09;;;;;;;11.57;6.07;;;;;;;21.82;52.88;97405.76;126942;1092;62623;-65
2021/07/24 04:21:36;;;;;;;8.63;5.90;;;;;;;21.73;52.67;97408.11;126908;1092;63073;-64
2021/07/24 04:24:04;;;;;;;9.60;6.17;;;;;;;21.77;52.74;97408.60;126946;1092;62581;-69
2021/07/24 04:26:32;;;;;;;8.50;5.70;;;;;;;22.21;51.54;97411.27;126952;1092;62555;-68
2021/07/24 04:28:59;;;;;;;8.70;5.67;;;;;;;23.08;49.71;97409.73;126819;1092;62706;-67
2021/07/24 04:31:26;;;;;;;11.03;5.80;;;;;;;24.01;47.29;97410.65;126915;1092;62569;-65
2021/07/24 04:33:53;;;;;;;10.47;5.70;;;;;;;24.80;45.82;97414.02;126954;1092;62623;-66
2021/07/24 04:36:22;;;;;;;10.60;6.07;;;;;;;25.13;45.68;97411.97;126899;1092;62610;-66
2021/07/24 04:38:49;;;;;;;9.10;5.67;;;;;;;25.34;45.04;97415.77;126895;1092;62622;-67
2021/07/24 04:41:17;;;;;;;8.73;5.60;;;;;;;25.97;43.57;97419.78;126892;1092;62642;-66
2021/07/24 04:43:45;;;;;;;7.37;5.20;;;;;;;26.89;41.00;97421.72;126857;1092;62607;-66
2021/07/24 04:46:12;;;;;;;8.85;5.80;;;;;;;27.68;39.12;97412.84;126988;1090;62633;-66
2021/07/24 04:48:39;;;;;;;8.47;5.00;;;;;;;28.36;37.36;97414.58;126948;1092;62629;-66
2021/07/24 04:51:06;;;;;;;7.40;5.43;;;;;;;28.88;36.01;97413.28;126897;1092;62617;-66
2021/07/24 04:53:33;;;;;;;8.27;5.43;;;;;;;29.25;35.36;97411.07;126868;1092;62620;-67
2021/07/24 04:56:01;;;;;;;7.83;5.17;;;;;;;29.24;36.06;97420.95;126827;1092;62770;-66
2021/07/24 04:58:29;;;;;;;6.97;5.53;;;;;;;29.00;36.48;97422.25;126855;1092;62610;-66
2021/07/24 05:00:56;;;;;;;9.60;5.20;;;;;;;29.13;35.38;97416.39;126882;1092;62616;-66
2021/07/24 05:03:23;;;;;;;7.83;5.50;;;;;;;29.27;35.07;97419.84;126938;1092;62638;-66
2021/07/24 05:05:53;;;;;;;8.73;5.30;;;;;;;29.05;35.27;97415.61;126841;1092;62546;-66
2021/07/24 05:08:21;;;;;;;7.98;5.20;;;;;;;28.81;35.73;97418.95;126889;1092;62674;-66
2021/07/24 05:10:48;;;;;;;7.60;5.30;;;;;;;28.63;35.90;97414.33;126878;1092;62633;-66
2021/07/24 05:13:15;;;;;;;8.95;5.15;;;;;;;28.42;36.62;97415.20;126858;1092;62626;-66
2021/07/24 05:15:43;;;;;;;7.37;5.23;;;;;;;28.19;36.93;97417.16;126872;1092;62600;-66
2021/07/24 05:18:12;;;;;;;10.53;5.43;;;;;;;27.89;37.00;97412.80;126912;1092;62687;-66
2021/07/24 05:20:39;;;;;;;9.33;5.40;;;;;;;27.53;37.66;97414.77;126904;1092;62762;-66
2021/07/24 05:23:06;;;;;;;9.33;5.60;;;;;;;27.38;37.96;97409.72;126858;1092;62617;-66
2021/07/24 05:25:34;;;;;;;9.55;5.75;;;;;;;27.14;38.53;97413.68;126909;1092;62623;-66
2021/07/24 05:28:01;;;;;;;7.33;5.67;;;;;;;27.03;38.85;97417.55;126902;1092;62621;-66
2021/07/24 05:30:28;;;;;;;10.43;5.40;;;;;;;26.94;38.92;97423.69;126831;1090;62694;-67
2021/07/24 05:32:55;;;;;;;9.00;5.37;;;;;;;26.91;39.18;97421.16;126880;1092;62712;-66
2021/07/24 05:35:22;;;;;;;8.95;5.30;;;;;;;27.06;38.59;97424.95;126860;1092;62610;-66
2021/07/24 05:37:50;;;;;;;10.40;5.60;;;;;;;27.37;38.35;97425.25;126826;1092;62614;-66
2021/07/24 05:40:17;;;;;;;7.97;5.30;;;;;;;28.23;36.79;97428.94;126837;1092;62617;-66
2021/07/24 05:42:44;;;;;;;8.43;5.40;;;;;;;29.41;34.66;97428.95;126805;1092;62588;-66
2021/07/24 05:45:11;;;;;;;7.67;4.83;;;;;;;30.48;33.21;97417.44;126840;1092;62594;-66
2021/07/24 05:47:38;;;;;;;9.70;5.17;;;;;;;31.45;31.67;97417.52;126866;1092;62673;-66
2021/07/24 05:50:06;;;;;;;8.10;5.30;;;;;;;32.16;30.17;97429.30;126926;1092;62636;-67
2021/07/24 05:52:33;;;;;;;7.37;5.40;;;;;;;32.60;29.51;97420.02;126941;1092;62639;-66
2021/07/24 05:55:00;;;;;;;14.60;5.77;;;;;;;32.88;28.61;97420.86;126842;1092;62676;-66
2021/07/24 05:57:27;;;;;;;15.20;6.17;;;;;;;32.73;29.03;97425.41;126887;1092;62774;-66
2021/07/24 05:59:55;;;;;;;8.70;5.50;;;;;;;32.35;29.62;97419.38;126889;1090;62616;-66
2021/07/24 06:02:22;;;;;;;11.65;5.65;;;;;;;32.09;29.61;97415.04;126857;1092;62605;-66
2021/07/24 06:05:08;;;;;;;9.43;5.50;;;;;;;31.97;28.94;97416.90;126906;1092;62645;-66
2021/07/24 06:07:35;;;;;;;10.67;5.83;;;;;;;32.11;29.32;97418.07;126805;1092;62623;-67
2021/07/24 06:10:03;;;;;;;10.45;5.80;;;;;;;32.87;27.77;97422.97;126817;1092;62700;-67
2021/07/24 06:12:30;;;;;;;10.60;5.70;;;;;;;33.78;26.71;97423.70;126917;1092;62677;-66
2021/07/24 06:14:57;;;;;;;12.95;5.90;;;;;;;34.64;26.02;97418.67;126897;1092;62601;-65
2021/07/24 06:17:24;;;;;;;10.37;5.50;;;;;;;35.34;24.62;97419.45;126903;1092;62642;-65
2021/07/24 06:19:52;;;;;;;8.60;5.30;;;;;;;35.96;23.80;97416.64;126845;1092;62625;-65
2021/07/24 06:22:19;;;;;;;8.95;5.80;;;;;;;36.76;23.36;97414.80;126889;1092;62707;-65
2021/07/24 06:24:46;;;;;;;11.95;5.10;;;;;;;37.40;22.59;97419.64;126829;1092;63023;-66
2021/07/24 06:27:13;;;;;;;8.00;5.20;;;;;;;38.27;21.82;97418.48;126876;1092;62617;-65
2021/07/24 06:29:40;;;;;;;10.93;5.30;;;;;;;38.99;20.44;97415.44;126910;1092;62559;-66
2021/07/24 06:32:07;;;;;;;9.47;4.77;;;;;;;39.65;20.18;97417.66;126890;1092;62671;-66
2021/07/24 06:34:34;;;;;;;10.85;4.95;;;;;;;40.26;19.34;97406.39;126931;1092;62622;-65
2021/07/24 06:37:02;;;;;;;9.38;4.88;;;;;;;40.79;19.35;97417.77;126923;1092;62773;-65
2021/07/24 06:39:29;;;;;;;12.23;5.00;;;;;;;41.20;18.66;97411.03;126898;1092;62597;-66
2021/07/24 06:41:56;;;;;;;10.20;4.80;;;;;;;41.70;18.12;97409.03;126883;1092;62646;-66
2021/07/24 06:44:23;;;;;;;9.85;5.15;;;;;;;42.11;17.58;97400.72;126864;1092;62719;-66
2021/07/24 06:46:50;;;;;;;9.43;4.78;;;;;;;42.65;16.73;97400.81;126983;1092;62710;-65
2021/07/24 06:49:17;;;;;;;8.63;5.15;;;;;;;43.07;16.94;97404.72;126903;1092;62627;-65
2021/07/24 06:51:44;;;;;;;9.40;4.60;;;;;;;43.49;16.23;97390.35;126933;1092;62565;-66
2021/07/24 06:54:11;;;;;;;13.20;5.25;;;;;;;43.61;17.02;97391.53;126930;1092;62581;-66
2021/07/24 06:56:38;;;;;;;10.40;4.30;;;;;;;43.96;15.63;97396.48;126811;1092;63064;-66
2021/07/24 06:59:06;;;;;;;7.15;4.30;;;;;;;44.29;15.14;97397.66;126891;1092;62607;-66
2021/07/24 07:01:33;;;;;;;9.63;4.73;;;;;;;44.68;15.31;97390.23;126974;1092;62616;-65
2021/07/24 07:04:00;;;;;;;11.10;4.80;;;;;;;44.85;14.51;97395.16;126953;1092;62661;-66
2021/07/24 07:06:27;;;;;;;8.75;4.75;;;;;;;45.01;14.24;97395.72;126925;1090;62696;-66
2021/07/24 07:08:54;;;;;;;10.93;4.50;;;;;;;45.34;13.96;97387.98;126883;1092;62629;-67
2021/07/24 07:11:22;;;;;;;11.15;4.75;;;;;;;45.58;14.45;97382.84;126851;1092;62591;-66
2021/07/24 07:13:49;;;;;;;13.83;4.87;;;;;;;45.72;13.40;97379.62;127010;1092;62591;-65
2021/07/24 07:16:16;;;;;;;15.05;4.80;;;;;;;45.80;13.54;97385.71;126895;1092;62617;-66
2021/07/24 07:19:04;;;;;;;11.43;4.70;;;;;;;45.95;13.45;97383.91;126867;1092;63508;-66
2021/07/24 07:21:31;;;;;;;15.63;5.30;;;;;;;46.18;13.09;97383.13;126862;1092;62610;-66
2021/07/24 07:23:58;;;;;;;9.40;4.50;;;;;;;46.48;13.50;97380.25;126877;1092;62626;-67
2021/07/24 07:26:28;;;;;;;11.97;4.77;;;;;;;46.66;13.20;97383.63;126873;1092;63085;-67
2021/07/24 07:29:01;;;;;;;9.85;5.00;;;;;;;46.83;13.14;97381.13;127012;1092;62703;-67
2021/07/24 07:31:33;;;;;;;10.95;5.00;;;;;;;47.02;12.92;97385.22;126918;1092;62705;-66
2021/07/24 07:34:01;;;;;;;16.43;5.73;;;;;;;47.38;12.62;97382.39;126834;1092;62587;-66
2021/07/24 07:36:28;;;;;;;10.60;5.00;;;;;;;47.93;12.63;97387.24;126859;1092;62626;-66
2021/07/24 07:38:55;;;;;;;16.35;5.00;;;;;;;48.09;11.71;97390.48;126862;1092;62607;-66
2021/07/24 07:41:22;;;;;;;11.67;5.07;;;;;;;47.97;12.24;97393.22;126896;1092;62649;-66
2021/07/24 07:43:50;;;;;;;12.85;5.40;;;;;;;48.32;12.04;97396.82;126855;1092;62618;-66
2021/07/24 07:46:17;;;;;;;10.83;5.45;;;;;;;48.75;11.52;97394.63;126894;1092;62660;-66
2021/07/24 07:48:44;;;;;;;13.53;5.57;;;;;;;48.55;11.90;97400.88;126849;1092;62694;-66
2021/07/24 07:51:11;;;;;;;14.53;5.70;;;;;;;48.38;11.95;97393.98;126910;1092;62625;-65
2021/07/24 07:53:38;;;;;;;13.90;5.60;;;;;;;48.30;11.70;97399.69;127016;1092;62605;-65
2021/07/24 07:56:11;;;;;;;12.33;5.57;;;;;;;48.20;11.73;97396.56;126952;1092;62710;-65
2021/07/24 07:58:38;;;;;;;14.70;6.35;;;;;;;48.40;11.64;97402.83;126925;1092;62616;-65
2021/07/24 08:01:10;;;;;;;15.30;6.70;;;;;;;48.38;11.90;97393.98;126950;1094;62642;-65
2021/07/24 08:03:41;;;;;;;13.20;6.80;;;;;;;48.65;11.51;97395.94;126958;1092;62760;-65
2021/07/24 08:06:08;;;;;;;17.63;6.77;;;;;;;48.71;12.26;97396.05;126933;1092;62648;-65
2021/07/24 08:08:35;;;;;;;12.30;6.07;;;;;;;49.07;11.59;97400.30;126964;1092;62683;-64
2021/07/24 08:11:02;;;;;;;11.48;6.15;;;;;;;49.22;11.57;97393.17;126892;1092;62617;-64
2021/07/24 08:13:30;;;;;;;9.55;5.85;;;;;;;49.16;11.33;97402.63;126891;1092;63022;-66
2021/07/24 08:15:57;;;;;;;8.10;5.50;;;;;;;48.97;11.21;97397.94;126993;1092;62641;-67
2021/07/24 08:18:24;;;;;;;14.03;6.70;;;;;;;49.14;12.27;97398.92;127002;1092;62585;-66
2021/07/24 08:21:10;;;;;;;14.60;6.95;;;;;;;49.46;11.15;97393.52;126962;1092;62866;-65
2021/07/24 08:23:37;;;;;;;14.83;6.80;;;;;;;49.58;11.62;97393.69;126935;1092;62633;-65
2021/07/24 08:26:05;;;;;;;13.07;6.73;;;;;;;49.84;11.16;97395.48;126938;1092;62660;-65
2021/07/24 08:28:32;;;;;;;11.35;6.30;;;;;;;49.84;11.20;97396.23;126947;1092;62707;-65
2021/07/24 08:31:00;;;;;;;11.75;5.35;;;;;;;49.76;11.09;97395.41;126988;1092;62658;-65
2021/07/24 08:33:27;;;;;;;11.93;5.45;;;;;;;49.77;11.07;97391.73;126920;1095;62673;-65
2021/07/24 08:35:55;;;;;;;10.23;5.53;;;;;;;50.03;11.14;97390.57;126958;1092;62984;-66
2021/07/24 08:38:22;;;;;;;10.10;5.80;;;;;;;49.97;11.15;97390.48;126960;1093;62741;-66
2021/07/24 08:40:49;;;;;;;9.10;5.15;;;;;;;50.11;10.42;97387.73;126940;1092;63067;-66
2021/07/24 08:43:16;;;;;;;12.43;5.55;;;;;;;49.98;10.73;97386.08;126857;1092;62744;-65
2021/07/24 08:45:44;;;;;;;12.38;5.65;;;;;;;50.05;10.71;97390.59;126877;1092;62745;-65
2021/07/24 08:48:11;;;;;;;11.33;5.77;;;;;;;49.85;10.84;97385.94;126909;1095;62660;-66
2021/07/24 08:50:40;;;;;;;10.73;5.47;;;;;;;49.72;10.35;97396.08;126871;1092;62713;-66
2021/07/24 08:53:08;;;;;;;7.30;5.00;;;;;;;49.42;10.27;97386.86;126862;1092;62743;-65
2021/07/24 08:55:37;;;;;;;12.00;5.10;;;;;;;49.41;10.84;97391.25;126950;1092;62623;-65
2021/07/24 08:58:04;;;;;;;10.87;5.33;;;;;;;49.60;10.78;97390.03;126982;1092;62591;-65
2021/07/24 09:00:31;;;;;;;9.73;4.60;;;;;;;49.95;10.37;97399.30;126888;1092;62671;-65
2021/07/24 09:03:00;;;;;;;9.57;4.90;;;;;;;50.37;10.45;97388.00;126935;1092;62623;-66
2021/07/24 09:05:29;;;;;;;7.90;4.90;;;;;;;50.15;10.91;97396.59;127048;1092;62632;-65
2021/07/24 09:07:57;;;;;;;8.90;5.00;;;;;;;48.82;10.79;97394.00;127001;1092;62610;-65
2021/07/24 09:10:24;;;;;;;;;;;;;;;47.60;11.79;97385.10;126994;1092;62588;-65
2021/07/24 09:12:54;;;;;;;10.63;5.53;;;;;;;46.03;12.91;97390.02;126922;1092;62626;-66
2021/07/24 09:15:21;;;;;;;7.70;4.73;;;;;;;44.25;14.61;97391.69;126909;1092;62623;-66
2021/07/24 09:20:34;;;;;;;8.15;5.40;;;;;;;41.16;17.38;97390.52;126959;1092;62572;-67
2021/07/24 09:23:24;;;;;;;8.20;5.17;;;;;;;40.01;17.94;97389.88;126904;1092;62691;-66
2021/07/24 09:25:52;;;;;;;7.55;5.15;;;;;;;38.37;19.07;97395.94;126926;1092;62644;-66
2021/07/24 09:28:19;;;;;;;11.77;5.40;;;;;;;37.51;19.96;97379.20;126967;1092;63063;-66
2021/07/24 09:30:46;;;;;;;10.58;5.63;;;;;;;36.75;20.88;97386.58;126964;1092;62679;-67
2021/07/24 09:33:17;;;;;;;8.65;5.30;;;;;;;36.17;22.02;97384.94;126903;1090;62633;-67
2021/07/24 09:35:44;;;;;;;6.97;5.23;;;;;;;35.35;23.18;97386.45;126964;1092;62620;-66
2021/07/24 09:38:15;;;;;;;12.70;6.00;;;;;;;34.77;23.95;97389.45;126939;1092;62671;-66
2021/07/24 09:40:44;;;;;;;8.53;5.58;;;;;;;34.16;24.33;97388.57;126998;1092;62636;-66
2021/07/24 09:43:30;;;;;;;9.78;5.30;;;;;;;33.80;24.54;97386.53;126958;1092;62619;-66
2021/07/24 09:46:19;;;;;;;8.63;5.63;;;;;;;33.34;24.63;97380.80;126957;1092;62568;-66
2021/07/24 09:48:48;;;;;;;9.43;6.10;;;;;;;33.12;25.39;97379.02;126907;1092;62623;-65
2021/07/24 09:51:31;;;;;;;8.10;5.03;;;;;;;32.82;25.35;97388.81;126972;1092;62591;-65
2021/07/24 09:53:58;;;;;;;7.93;4.90;;;;;;;32.58;25.59;97379.73;126948;1092;62780;-66
2021/07/24 09:56:44;;;;;;;7.25;5.10;;;;;;;32.49;25.65;97379.66;126905;1092;62751;-65
2021/07/24 09:59:31;;;;;;;8.93;4.78;;;;;;;32.38;25.96;97380.95;126927;1092;62611;-66
2021/07/24 10:02:03;;;;;;;8.93;5.67;;;;;;;32.25;26.59;97384.13;126901;1092;62639;-66
2021/07/24 10:04:34;;;;;;;7.60;5.23;;;;;;;32.30;26.75;97383.89;126918;1092;62585;-65
2021/07/24 10:07:04;;;;;;;8.30;5.00;;;;;;;32.18;25.96;97384.98;126971;1092;62619;-66
2021/07/24 10:09:33;;;;;;;9.00;5.50;;;;;;;32.01;26.36;97382.88;126944;1092;62773;-66
2021/07/24 10:12:01;;;;;;;9.58;5.13;;;;;;;31.80;27.16;97375.45;126992;1092;62594;-66
2021/07/24 10:14:29;;;;;;;9.33;5.60;;;;;;;31.59;25.22;97380.75;127052;1092;62574;-64
2021/07/24 10:16:57;;;;;;;7.90;4.67;;;;;;;31.39;25.21;97382.64;126871;1092;62617;-65
2021/07/24 10:19:25;;;;;;;7.83;4.60;;;;;;;31.37;25.10;97373.13;126970;1092;62608;-66
2021/07/24 10:21:54;;;;;;;6.90;4.60;;;;;;;31.43;24.99;97371.56;126926;1092;62689;-65
2021/07/24 10:24:22;;;;;;;8.70;4.70;;;;;;;31.41;25.21;97371.37;126900;1092;62604;-65
2021/07/24 10:26:59;;;;;;;10.40;5.53;;;;;;;31.45;25.24;97366.02;126911;1092;62621;-67
2021/07/24 10:29:33;;;;;;;8.23;5.03;;;;;;;31.24;25.30;97371.34;126933;1092;62623;-65
2021/07/24 10:32:04;;;;;;;10.35;4.90;;;;;;;31.14;25.89;97370.42;126932;1092;62779;-65
2021/07/24 10:34:32;;;;;;;7.00;5.20;;;;;;;31.01;26.96;97362.12;126938;1092;62699;-65
2021/07/24 10:36:59;;;;;;;9.30;5.50;;;;;;;30.84;27.72;97363.55;126910;1092;62575;-65
2021/07/24 10:39:26;;;;;;;7.47;4.73;;;;;;;30.70;26.25;97365.16;126848;1092;62658;-64
2021/07/24 10:42:10;;;;;;;6.87;4.67;;;;;;;30.50;25.46;97360.47;126809;1092;62646;-66
2021/07/24 10:44:39;;;;;;;7.30;4.90;;;;;;;30.32;25.60;97368.93;126999;1092;62778;-66
2021/07/24 10:47:10;;;;;;;10.43;4.80;;;;;;;30.18;25.21;97350.54;126923;1092;62588;-65
2021/07/24 10:49:38;;;;;;;13.13;5.23;;;;;;;30.08;25.78;97363.88;126864;1092;62646;-65
2021/07/24 10:52:11;;;;;;;8.37;4.60;;;;;;;30.00;26.98;97360.28;126863;1091;62888;-65
2021/07/24 10:55:00;;;;;;;9.23;5.43;;;;;;;29.78;26.50;97359.73;126853;1092;62674;-65
2021/07/24 10:57:46;;;;;;;9.23;4.70;;;;;;;29.69;26.34;97368.13;126950;1092;62608;-65
2021/07/24 11:00:18;;;;;;;7.25;4.70;;;;;;;29.69;25.37;97368.13;126918;1092;62710;-65
2021/07/24 11:02:49;;;;;;;5.18;4.08;;;;;;;29.69;24.87;97362.42;126911;1092;62601;-65
2021/07/24 11:05:28;;;;;;;6.07;4.50;;;;;;;29.60;24.21;97363.75;126938;1092;63038;-65
2021/07/24 11:07:55;;;;;;;6.53;4.67;;;;;;;29.53;24.04;97355.97;126953;1092;62661;-65
2021/07/24 11:10:22;;;;;;;6.40;4.90;;;;;;;29.45;23.71;97355.20;126913;1092;62719;-65
2021/07/24 11:12:50;;;;;;;5.65;4.25;;;;;;;29.38;22.97;97361.66;126904;1092;62769;-64
2021/07/24 11:15:37;;;;;;;11.13;4.60;;;;;;;29.35;22.61;97351.39;126919;1092;62611;-65
2021/07/24 11:18:24;;;;;;;5.80;4.30;;;;;;;29.42;22.44;97356.33;126939;1092;62568;-68
2021/07/24 11:20:51;;;;;;;5.80;3.77;;;;;;;29.56;22.69;97349.13;126896;1092;62582;-65
2021/07/24 11:23:23;;;;;;;7.67;5.10;;;;;;;29.68;23.04;97338.84;126919;1092;62687;-65
2021/07/24 11:25:51;;;;;;;8.70;4.00;;;;;;;29.63;23.48;97342.66;126937;1092;62652;-65
2021/07/24 11:28:22;;;;;;;7.47;4.40;;;;;;;29.57;23.50;97362.05;126979;1092;62632;-65
2021/07/24 11:31:02;;;;;;;6.33;4.57;;;;;;;29.49;23.34;97344.20;127015;1092;62565;-65
2021/07/24 11:33:30;;;;;;;6.40;4.57;;;;;;;29.34;23.55;97347.02;126949;1092;62620;-65
2021/07/24 11:36:15;;;;;;;6.03;4.17;;;;;;;29.12;22.29;97340.75;126941;1092;62710;-64